ARG1497 SASA-SABE
Flight info
| Callsign | ARG1497 |
|---|---|
| Flight time | 1h 41m |
| Altitude | 35000 |
| Route | VUL1 PONPI UT681 PUBER UL550 ROS UT672 MULTA UW24 SNT SNT8Q |
| Aircraft | B737/M-SDE2E3FGHIRWXY/LB1 |
Departure
| Time | 2026-05-05 23:33 |
|---|---|
| Airport | Martín Miguel de Güemes International Airport (SASA) |
Arrival
| Time | 2026-05-06 01:14 |
|---|---|
| Airport | Aeroparque Jorge Newbery (SABE) |
| Time | Latitude | Longitude | Altitude | Speed | Heading |
|---|---|---|---|---|---|
| 2026-05-05 22:37 | -24.84466 | -65.47950 | 4016 ft | 0 kts | 21° |
| 2026-05-05 23:15 | -24.84472 | -65.47952 | 4016 ft | 4 kts | 17° |
| 2026-05-05 23:16 | -24.84495 | -65.47952 | 4016 ft | 4 kts | 312° |
| 2026-05-05 23:16 | -24.84505 | -65.47926 | 4016 ft | 4 kts | 281° |
| 2026-05-05 23:16 | -24.84510 | -65.47904 | 4016 ft | 0 kts | 293° |
| 2026-05-05 23:20 | -24.84503 | -65.47921 | 4016 ft | 6 kts | 293° |
| 2026-05-05 23:20 | -24.84505 | -65.47980 | 4016 ft | 11 kts | 253° |
| 2026-05-05 23:21 | -24.84530 | -65.48063 | 4016 ft | 11 kts | 252° |
| 2026-05-05 23:21 | -24.84553 | -65.48144 | 4016 ft | 11 kts | 252° |
| 2026-05-05 23:21 | -24.84577 | -65.48223 | 4016 ft | 11 kts | 252° |
| 2026-05-05 23:21 | -24.84602 | -65.48307 | 4016 ft | 12 kts | 248° |
| 2026-05-05 23:22 | -24.84628 | -65.48345 | 4016 ft | 0 kts | 223° |
| 2026-05-05 23:25 | -24.84628 | -65.48346 | 4016 ft | 0 kts | 223° |
| 2026-05-05 23:25 | -24.84647 | -65.48366 | 4011 ft | 6 kts | 223° |
| 2026-05-05 23:25 | -24.84702 | -65.48420 | 4016 ft | 11 kts | 221° |
| 2026-05-05 23:26 | -24.84757 | -65.48446 | 4017 ft | 14 kts | 192° |
| 2026-05-05 23:26 | -24.84870 | -65.48471 | 4017 ft | 19 kts | 191° |
| 2026-05-05 23:26 | -24.85016 | -65.48501 | 4016 ft | 24 kts | 191° |
| 2026-05-05 23:26 | -24.85187 | -65.48538 | 4016 ft | 24 kts | 191° |
| 2026-05-05 23:27 | -24.85346 | -65.48572 | 4016 ft | 23 kts | 191° |
| 2026-05-05 23:27 | -24.85498 | -65.48604 | 4017 ft | 22 kts | 191° |
| 2026-05-05 23:27 | -24.85647 | -65.48637 | 4018 ft | 22 kts | 191° |
| 2026-05-05 23:27 | -24.85792 | -65.48667 | 4017 ft | 21 kts | 191° |
| 2026-05-05 23:28 | -24.85933 | -65.48697 | 4018 ft | 20 kts | 191° |
| 2026-05-05 23:28 | -24.86070 | -65.48726 | 4017 ft | 20 kts | 191° |
| 2026-05-05 23:28 | -24.86202 | -65.48754 | 4016 ft | 19 kts | 191° |
| 2026-05-05 23:28 | -24.86329 | -65.48782 | 4007 ft | 18 kts | 191° |
| 2026-05-05 23:29 | -24.86452 | -65.48808 | 4015 ft | 18 kts | 191° |
| 2026-05-05 23:29 | -24.86571 | -65.48833 | 4014 ft | 17 kts | 191° |
| 2026-05-05 23:29 | -24.86686 | -65.48858 | 4015 ft | 17 kts | 191° |
| 2026-05-05 23:29 | -24.86797 | -65.48881 | 4010 ft | 16 kts | 191° |
| 2026-05-05 23:30 | -24.86895 | -65.48896 | 4008 ft | 12 kts | 173° |
| 2026-05-05 23:30 | -24.86973 | -65.48870 | 4004 ft | 12 kts | 162° |
| 2026-05-05 23:30 | -24.87048 | -65.48843 | 4017 ft | 12 kts | 162° |
| 2026-05-05 23:30 | -24.87146 | -65.48809 | 4017 ft | 17 kts | 162° |
| 2026-05-05 23:31 | -24.87231 | -65.48789 | 4017 ft | 11 kts | 183° |
| 2026-05-05 23:31 | -24.87296 | -65.48832 | 4016 ft | 11 kts | 238° |
| 2026-05-05 23:31 | -24.87298 | -65.48912 | 4017 ft | 9 kts | 290° |
| 2026-05-05 23:31 | -24.87258 | -65.48965 | 4018 ft | 9 kts | 328° |
| 2026-05-05 23:32 | -24.87197 | -65.48966 | 4018 ft | 9 kts | 11° |
| 2026-05-05 23:32 | -24.86985 | -65.48921 | 4011 ft | 71 kts | 11° |
| 2026-05-05 23:32 | -24.86234 | -65.48761 | 4016 ft | 147 kts | 11° |
| 2026-05-05 23:32 | -24.85040 | -65.48503 | 4228 ft | 194 kts | 11° |
| 2026-05-05 23:33 | -24.83704 | -65.48208 | 5169 ft | 196 kts | 11° |
| 2026-05-05 23:33 | -24.82398 | -65.47911 | 6473 ft | 184 kts | 12° |
| 2026-05-05 23:33 | -24.81184 | -65.47632 | 7503 ft | 178 kts | 12° |
| 2026-05-05 23:33 | -24.79897 | -65.47256 | 7867 ft | 204 kts | 26° |
| 2026-05-05 23:34 | -24.78670 | -65.46355 | 8093 ft | 227 kts | 38° |
| 2026-05-05 23:34 | -24.77469 | -65.45094 | 8376 ft | 248 kts | 50° |
| 2026-05-05 23:34 | -24.76487 | -65.43487 | 8866 ft | 263 kts | 53° |
| 2026-05-05 23:34 | -24.75228 | -65.41878 | 9175 ft | 287 kts | 52° |
| 2026-05-05 23:35 | -24.74472 | -65.39830 | 9859 ft | 297 kts | 85° |
| 2026-05-05 23:35 | -24.74811 | -65.37597 | 10748 ft | 299 kts | 109° |
| 2026-05-05 23:35 | -24.75496 | -65.35420 | 11566 ft | 303 kts | 108° |
| 2026-05-05 23:35 | -24.76500 | -65.33373 | 12240 ft | 310 kts | 134° |
| 2026-05-05 23:36 | -24.78323 | -65.32142 | 13037 ft | 312 kts | 164° |
| 2026-05-05 23:36 | -24.80537 | -65.31921 | 13361 ft | 331 kts | 181° |
| 2026-05-05 23:36 | -24.82917 | -65.31984 | 13536 ft | 353 kts | 181° |
| 2026-05-05 23:36 | -24.85422 | -65.32035 | 13982 ft | 364 kts | 181° |
| 2026-05-05 23:37 | -24.87933 | -65.32064 | 14681 ft | 365 kts | 180° |
| 2026-05-05 23:37 | -24.90483 | -65.32071 | 15429 ft | 367 kts | 180° |
| 2026-05-05 23:37 | -24.93053 | -65.32067 | 16126 ft | 371 kts | 181° |
| 2026-05-05 23:37 | -24.95651 | -65.32054 | 16713 ft | 376 kts | 181° |
| 2026-05-05 23:38 | -24.98295 | -65.32035 | 17134 ft | 385 kts | 181° |
| 2026-05-05 23:38 | -25.01001 | -65.32018 | 17645 ft | 391 kts | 181° |
| 2026-05-05 23:38 | -25.03728 | -65.31999 | 18309 ft | 392 kts | 181° |
| 2026-05-05 23:38 | -25.06469 | -65.31982 | 18916 ft | 396 kts | 182° |
| 2026-05-05 23:39 | -25.09237 | -65.31965 | 19481 ft | 399 kts | 182° |
| 2026-05-05 23:39 | -25.12025 | -65.31947 | 20054 ft | 402 kts | 182° |
| 2026-05-05 23:39 | -25.14837 | -65.31930 | 20612 ft | 406 kts | 182° |
| 2026-05-05 23:39 | -25.17672 | -65.31912 | 21136 ft | 409 kts | 182° |
| 2026-05-05 23:40 | -25.20530 | -65.31894 | 21661 ft | 412 kts | 182° |
| 2026-05-05 23:40 | -25.23406 | -65.31875 | 22169 ft | 415 kts | 182° |
| 2026-05-05 23:40 | -25.26306 | -65.31856 | 22665 ft | 418 kts | 182° |
| 2026-05-05 23:40 | -25.29223 | -65.31837 | 23120 ft | 421 kts | 183° |
| 2026-05-05 23:41 | -25.32152 | -65.31817 | 23575 ft | 422 kts | 183° |
| 2026-05-05 23:41 | -25.35103 | -65.31796 | 23988 ft | 425 kts | 183° |
| 2026-05-05 23:41 | -25.38082 | -65.31777 | 24359 ft | 429 kts | 183° |
| 2026-05-05 23:41 | -25.41040 | -65.31758 | 24764 ft | 432 kts | 183° |
| 2026-05-05 23:42 | -25.44054 | -65.31739 | 25177 ft | 434 kts | 184° |
| 2026-05-05 23:42 | -25.47088 | -65.31718 | 25596 ft | 437 kts | 184° |
| 2026-05-05 23:42 | -25.50136 | -65.31698 | 26004 ft | 440 kts | 184° |
| 2026-05-05 23:42 | -25.53202 | -65.31677 | 26395 ft | 442 kts | 184° |
| 2026-05-05 23:43 | -25.56291 | -65.31658 | 26730 ft | 446 kts | 184° |
| 2026-05-05 23:43 | -25.59399 | -65.31637 | 27100 ft | 447 kts | 184° |
| 2026-05-05 23:43 | -25.62517 | -65.31616 | 27452 ft | 450 kts | 185° |
| 2026-05-05 23:43 | -25.65660 | -65.31595 | 27798 ft | 453 kts | 185° |
| 2026-05-05 23:44 | -25.68820 | -65.31575 | 28149 ft | 455 kts | 185° |
| 2026-05-05 23:44 | -25.71992 | -65.31553 | 28507 ft | 457 kts | 185° |
| 2026-05-05 23:44 | -25.75175 | -65.31499 | 28820 ft | 462 kts | 181° |
| 2026-05-05 23:44 | -25.78375 | -65.30763 | 29043 ft | 477 kts | 166° |
| 2026-05-05 23:45 | -25.81515 | -65.29542 | 29431 ft | 479 kts | 166° |
| 2026-05-05 23:45 | -25.84672 | -65.28307 | 29663 ft | 482 kts | 166° |
| 2026-05-05 23:45 | -25.87850 | -65.27081 | 29865 ft | 485 kts | 166° |
| 2026-05-05 23:45 | -25.91016 | -65.25882 | 30160 ft | 486 kts | 167° |
| 2026-05-05 23:46 | -25.94226 | -65.24683 | 30487 ft | 487 kts | 167° |
| 2026-05-05 23:46 | -25.97428 | -65.23495 | 31060 ft | 481 kts | 167° |
| 2026-05-05 23:46 | -26.00586 | -65.22326 | 31626 ft | 476 kts | 168° |
| 2026-05-05 23:46 | -26.03728 | -65.21167 | 32027 ft | 476 kts | 169° |
| 2026-05-05 23:47 | -26.06873 | -65.20011 | 32343 ft | 477 kts | 169° |
| 2026-05-05 23:47 | -26.10014 | -65.18855 | 32764 ft | 475 kts | 169° |
| 2026-05-05 23:47 | -26.13139 | -65.17700 | 33274 ft | 470 kts | 169° |
| 2026-05-05 23:47 | -26.16231 | -65.16554 | 33803 ft | 465 kts | 170° |
| 2026-05-05 23:48 | -26.19291 | -65.15421 | 34237 ft | 462 kts | 170° |
| 2026-05-05 23:48 | -26.22336 | -65.14294 | 34581 ft | 462 kts | 170° |
| 2026-05-05 23:48 | -26.25396 | -65.13164 | 34777 ft | 464 kts | 170° |
| 2026-05-05 23:48 | -26.28472 | -65.12029 | 34916 ft | 467 kts | 170° |
| 2026-05-05 23:49 | -26.34672 | -65.09734 | 34910 ft | 470 kts | 170° |
| 2026-05-05 23:49 | -26.40794 | -65.07454 | 34888 ft | 462 kts | 170° |
| 2026-05-05 23:50 | -26.46881 | -65.05187 | 34899 ft | 461 kts | 171° |
| 2026-05-05 23:50 | -26.52975 | -65.02923 | 34899 ft | 462 kts | 171° |
| 2026-05-05 23:51 | -26.59088 | -65.00647 | 34887 ft | 463 kts | 171° |
| 2026-05-05 23:51 | -26.65200 | -64.98368 | 34885 ft | 463 kts | 171° |
| 2026-05-05 23:52 | -26.71319 | -64.96082 | 34885 ft | 463 kts | 171° |
| 2026-05-05 23:52 | -26.77444 | -64.93792 | 34889 ft | 464 kts | 171° |
| 2026-05-05 23:53 | -26.83563 | -64.91502 | 34894 ft | 464 kts | 171° |
| 2026-05-05 23:53 | -26.89648 | -64.89221 | 34891 ft | 465 kts | 171° |
| 2026-05-05 23:54 | -26.95795 | -64.86918 | 34882 ft | 466 kts | 171° |
| 2026-05-05 23:54 | -27.01947 | -64.84609 | 34884 ft | 467 kts | 171° |
| 2026-05-05 23:55 | -27.08117 | -64.82291 | 34881 ft | 468 kts | 171° |
| 2026-05-05 23:55 | -27.14294 | -64.79966 | 34881 ft | 468 kts | 171° |
| 2026-05-05 23:56 | -27.20479 | -64.77637 | 34877 ft | 468 kts | 171° |
| 2026-05-05 23:56 | -27.26606 | -64.75324 | 34879 ft | 468 kts | 171° |
| 2026-05-05 23:57 | -27.32774 | -64.72995 | 34883 ft | 467 kts | 171° |
| 2026-05-05 23:57 | -27.38938 | -64.70665 | 34879 ft | 467 kts | 171° |
| 2026-05-05 23:58 | -27.45125 | -64.68323 | 34877 ft | 467 kts | 171° |
| 2026-05-05 23:58 | -27.51251 | -64.66001 | 34881 ft | 467 kts | 171° |
| 2026-05-05 23:59 | -27.54288 | -64.64617 | 34864 ft | 478 kts | 162° |
| 2026-05-05 23:59 | -27.57205 | -64.62739 | 34903 ft | 483 kts | 158° |
| 2026-05-05 23:59 | -27.62955 | -64.58783 | 34882 ft | 484 kts | 158° |
| 2026-05-06 00:00 | -27.68717 | -64.54829 | 34861 ft | 484 kts | 158° |
| 2026-05-06 00:00 | -27.74490 | -64.50924 | 34860 ft | 484 kts | 159° |
| 2026-05-06 00:01 | -27.80282 | -64.47024 | 34862 ft | 484 kts | 159° |
| 2026-05-06 00:01 | -27.86056 | -64.43134 | 34858 ft | 483 kts | 159° |
| 2026-05-06 00:02 | -27.91821 | -64.39242 | 34862 ft | 482 kts | 159° |
| 2026-05-06 00:02 | -27.97548 | -64.35370 | 34857 ft | 482 kts | 159° |
| 2026-05-06 00:03 | -28.03302 | -64.31475 | 34862 ft | 482 kts | 159° |
| 2026-05-06 00:03 | -28.09060 | -64.27572 | 34860 ft | 482 kts | 159° |
| 2026-05-06 00:04 | -28.14808 | -64.23669 | 34863 ft | 481 kts | 159° |
| 2026-05-06 00:04 | -28.20555 | -64.19764 | 34862 ft | 482 kts | 159° |
| 2026-05-06 00:05 | -28.29177 | -64.13897 | 34861 ft | 482 kts | 159° |
| 2026-05-06 00:06 | -28.34933 | -64.09976 | 34863 ft | 482 kts | 159° |
| 2026-05-06 00:06 | -28.40688 | -64.06051 | 34856 ft | 483 kts | 159° |
| 2026-05-06 00:07 | -28.46458 | -64.02111 | 34868 ft | 484 kts | 158° |
| 2026-05-06 00:07 | -28.52233 | -63.98160 | 34884 ft | 485 kts | 158° |
| 2026-05-06 00:08 | -28.57984 | -63.94221 | 34886 ft | 486 kts | 158° |
| 2026-05-06 00:08 | -28.63789 | -63.90239 | 34878 ft | 487 kts | 159° |
| 2026-05-06 00:09 | -28.69595 | -63.86250 | 34891 ft | 487 kts | 158° |
| 2026-05-06 00:09 | -28.75395 | -63.82261 | 34900 ft | 487 kts | 159° |
| 2026-05-06 00:10 | -28.81203 | -63.78262 | 34897 ft | 488 kts | 158° |
| 2026-05-06 00:10 | -28.86971 | -63.74257 | 34900 ft | 488 kts | 158° |
| 2026-05-06 00:11 | -28.92779 | -63.70209 | 34898 ft | 488 kts | 158° |
| 2026-05-06 00:11 | -28.98581 | -63.66165 | 34896 ft | 489 kts | 158° |
| 2026-05-06 00:12 | -29.04387 | -63.62115 | 34899 ft | 488 kts | 158° |
| 2026-05-06 00:12 | -29.10186 | -63.58064 | 34903 ft | 488 kts | 159° |
| 2026-05-06 00:13 | -29.15979 | -63.54012 | 34910 ft | 488 kts | 159° |
| 2026-05-06 00:13 | -29.21765 | -63.49959 | 34907 ft | 488 kts | 159° |
| 2026-05-06 00:14 | -29.27561 | -63.45894 | 34907 ft | 488 kts | 159° |
| 2026-05-06 00:14 | -29.33348 | -63.41827 | 34906 ft | 488 kts | 159° |
| 2026-05-06 00:15 | -29.38162 | -63.38440 | 34908 ft | 488 kts | 159° |
| 2026-05-06 00:15 | -29.43943 | -63.34369 | 34909 ft | 488 kts | 159° |
| 2026-05-06 00:16 | -29.50666 | -63.29619 | 34918 ft | 488 kts | 159° |
| 2026-05-06 00:16 | -29.56438 | -63.25522 | 34915 ft | 488 kts | 159° |
| 2026-05-06 00:17 | -29.61251 | -63.22102 | 34921 ft | 488 kts | 158° |
| 2026-05-06 00:17 | -29.67025 | -63.17994 | 34915 ft | 488 kts | 158° |
| 2026-05-06 00:18 | -29.72812 | -63.13871 | 34915 ft | 488 kts | 159° |
| 2026-05-06 00:18 | -29.78587 | -63.09751 | 34915 ft | 488 kts | 159° |
| 2026-05-06 00:19 | -29.84364 | -63.05626 | 34919 ft | 488 kts | 159° |
| 2026-05-06 00:19 | -29.90136 | -63.01499 | 34916 ft | 488 kts | 158° |
| 2026-05-06 00:20 | -29.95907 | -62.97365 | 34915 ft | 488 kts | 158° |
| 2026-05-06 00:20 | -30.01639 | -62.93249 | 34919 ft | 489 kts | 158° |
| 2026-05-06 00:21 | -30.07416 | -62.89103 | 34925 ft | 489 kts | 159° |
| 2026-05-06 00:21 | -30.13193 | -62.84950 | 34934 ft | 489 kts | 159° |
| 2026-05-06 00:22 | -30.18960 | -62.80794 | 34938 ft | 489 kts | 159° |
| 2026-05-06 00:22 | -30.24742 | -62.76623 | 34942 ft | 489 kts | 158° |
| 2026-05-06 00:23 | -30.30519 | -62.72452 | 34938 ft | 489 kts | 158° |
| 2026-05-06 00:23 | -30.36296 | -62.68275 | 34934 ft | 489 kts | 159° |
| 2026-05-06 00:24 | -30.42069 | -62.64095 | 34930 ft | 490 kts | 158° |
| 2026-05-06 00:24 | -30.47847 | -62.59908 | 34935 ft | 489 kts | 159° |
| 2026-05-06 00:25 | -30.53579 | -62.55749 | 34928 ft | 489 kts | 158° |
| 2026-05-06 00:25 | -30.59348 | -62.51558 | 34938 ft | 489 kts | 158° |
| 2026-05-06 00:26 | -30.65120 | -62.47356 | 34935 ft | 489 kts | 158° |
| 2026-05-06 00:26 | -30.70887 | -62.43151 | 34934 ft | 489 kts | 158° |
| 2026-05-06 00:27 | -30.76654 | -62.38941 | 34934 ft | 489 kts | 158° |
| 2026-05-06 00:27 | -30.82423 | -62.34739 | 34936 ft | 489 kts | 159° |
| 2026-05-06 00:28 | -30.88194 | -62.30553 | 34941 ft | 489 kts | 159° |
| 2026-05-06 00:28 | -30.93964 | -62.26359 | 34932 ft | 489 kts | 158° |
| 2026-05-06 00:29 | -30.99696 | -62.22184 | 34937 ft | 489 kts | 158° |
| 2026-05-06 00:29 | -31.05467 | -62.17973 | 34925 ft | 489 kts | 158° |
| 2026-05-06 00:30 | -31.11232 | -62.13766 | 34926 ft | 488 kts | 158° |
| 2026-05-06 00:30 | -31.16993 | -62.09555 | 34923 ft | 488 kts | 158° |
| 2026-05-06 00:31 | -31.22757 | -62.05328 | 34933 ft | 489 kts | 158° |
| 2026-05-06 00:31 | -31.28476 | -62.01078 | 34929 ft | 489 kts | 158° |
| 2026-05-06 00:32 | -31.34211 | -61.96806 | 34930 ft | 489 kts | 158° |
| 2026-05-06 00:32 | -31.39961 | -61.92522 | 34924 ft | 489 kts | 158° |
| 2026-05-06 00:33 | -31.45695 | -61.88246 | 34919 ft | 489 kts | 158° |
| 2026-05-06 00:33 | -31.51434 | -61.83961 | 34921 ft | 488 kts | 158° |
| 2026-05-06 00:34 | -31.57156 | -61.79687 | 34918 ft | 488 kts | 158° |
| 2026-05-06 00:34 | -31.62900 | -61.75385 | 34918 ft | 488 kts | 158° |
| 2026-05-06 00:35 | -31.68592 | -61.71117 | 34918 ft | 489 kts | 158° |
| 2026-05-06 00:35 | -31.74329 | -61.66807 | 34923 ft | 489 kts | 158° |
| 2026-05-06 00:36 | -31.80063 | -61.62494 | 34925 ft | 489 kts | 158° |
| 2026-05-06 00:36 | -31.85795 | -61.58175 | 34917 ft | 489 kts | 158° |
| 2026-05-06 00:37 | -31.91524 | -61.53854 | 34914 ft | 489 kts | 158° |
| 2026-05-06 00:37 | -31.97222 | -61.49551 | 34919 ft | 489 kts | 157° |
| 2026-05-06 00:38 | -32.02959 | -61.45213 | 34919 ft | 489 kts | 157° |
| 2026-05-06 00:38 | -32.08690 | -61.40869 | 34921 ft | 489 kts | 157° |
| 2026-05-06 00:39 | -32.14410 | -61.36527 | 34911 ft | 489 kts | 157° |
| 2026-05-06 00:39 | -32.20089 | -61.32210 | 34915 ft | 488 kts | 157° |
| 2026-05-06 00:40 | -32.25791 | -61.27869 | 34921 ft | 486 kts | 157° |
| 2026-05-06 00:40 | -32.31480 | -61.23532 | 34914 ft | 486 kts | 157° |
| 2026-05-06 00:41 | -32.37156 | -61.19200 | 34917 ft | 485 kts | 157° |
| 2026-05-06 00:41 | -32.42824 | -61.14866 | 34919 ft | 484 kts | 156° |
| 2026-05-06 00:42 | -32.48440 | -61.10564 | 34914 ft | 483 kts | 156° |
| 2026-05-06 00:42 | -32.54071 | -61.06245 | 34919 ft | 482 kts | 156° |
| 2026-05-06 00:43 | -32.59688 | -61.01931 | 34913 ft | 481 kts | 156° |
| 2026-05-06 00:43 | -32.65287 | -60.97622 | 34916 ft | 479 kts | 156° |
| 2026-05-06 00:44 | -32.70896 | -60.93301 | 34916 ft | 479 kts | 156° |
| 2026-05-06 00:44 | -32.76473 | -60.88996 | 34922 ft | 478 kts | 156° |
| 2026-05-06 00:45 | -32.82039 | -60.84698 | 34914 ft | 477 kts | 156° |
| 2026-05-06 00:45 | -32.87600 | -60.80392 | 34918 ft | 476 kts | 156° |
| 2026-05-06 00:46 | -32.93179 | -60.76177 | 34917 ft | 473 kts | 159° |
| 2026-05-06 00:46 | -32.98870 | -60.72269 | 34918 ft | 471 kts | 160° |
| 2026-05-06 00:47 | -33.04570 | -60.68415 | 34918 ft | 471 kts | 159° |
| 2026-05-06 00:47 | -33.10259 | -60.64512 | 34911 ft | 472 kts | 159° |
| 2026-05-06 00:48 | -33.15930 | -60.60588 | 34919 ft | 471 kts | 159° |
| 2026-05-06 00:48 | -33.21568 | -60.56676 | 34916 ft | 471 kts | 159° |
| 2026-05-06 00:49 | -33.27239 | -60.52737 | 34918 ft | 471 kts | 158° |
| 2026-05-06 00:49 | -33.32905 | -60.48795 | 34918 ft | 471 kts | 158° |
| 2026-05-06 00:50 | -33.38570 | -60.44846 | 34914 ft | 471 kts | 158° |
| 2026-05-06 00:50 | -33.41408 | -60.42867 | 34812 ft | 473 kts | 158° |
| 2026-05-06 00:50 | -33.44260 | -60.40878 | 34541 ft | 473 kts | 158° |
| 2026-05-06 00:50 | -33.47089 | -60.38900 | 34300 ft | 470 kts | 158° |
| 2026-05-06 00:51 | -33.49908 | -60.36927 | 33924 ft | 468 kts | 158° |
| 2026-05-06 00:51 | -33.52734 | -60.34951 | 33214 ft | 469 kts | 157° |
| 2026-05-06 00:51 | -33.55533 | -60.32988 | 32757 ft | 463 kts | 157° |
| 2026-05-06 00:51 | -33.58279 | -60.31062 | 32214 ft | 461 kts | 157° |
| 2026-05-06 00:52 | -33.61032 | -60.29130 | 31691 ft | 457 kts | 157° |
| 2026-05-06 00:52 | -33.63767 | -60.27211 | 31177 ft | 454 kts | 157° |
| 2026-05-06 00:52 | -33.66477 | -60.25307 | 30687 ft | 450 kts | 157° |
| 2026-05-06 00:52 | -33.69170 | -60.23415 | 30204 ft | 446 kts | 156° |
| 2026-05-06 00:53 | -33.71837 | -60.21540 | 29716 ft | 442 kts | 156° |
| 2026-05-06 00:53 | -33.74480 | -60.19681 | 29221 ft | 438 kts | 156° |
| 2026-05-06 00:53 | -33.77103 | -60.17835 | 28710 ft | 435 kts | 156° |
| 2026-05-06 00:53 | -33.79705 | -60.16002 | 28197 ft | 431 kts | 156° |
| 2026-05-06 00:54 | -33.82248 | -60.14088 | 27676 ft | 432 kts | 149° |
| 2026-05-06 00:54 | -33.84495 | -60.11732 | 27180 ft | 436 kts | 139° |
| 2026-05-06 00:54 | -33.86424 | -60.08913 | 26695 ft | 437 kts | 129° |
| 2026-05-06 00:54 | -33.88116 | -60.05880 | 26216 ft | 434 kts | 127° |
| 2026-05-06 00:55 | -33.89767 | -60.02851 | 25706 ft | 431 kts | 127° |
| 2026-05-06 00:55 | -33.91405 | -59.99841 | 25204 ft | 428 kts | 127° |
| 2026-05-06 00:55 | -33.93038 | -59.96860 | 24702 ft | 425 kts | 127° |
| 2026-05-06 00:55 | -33.94662 | -59.93915 | 24202 ft | 421 kts | 127° |
| 2026-05-06 00:56 | -33.96284 | -59.90989 | 23714 ft | 418 kts | 127° |
| 2026-05-06 00:56 | -33.97895 | -59.88092 | 23211 ft | 415 kts | 127° |
| 2026-05-06 00:56 | -33.99496 | -59.85215 | 22720 ft | 411 kts | 127° |
| 2026-05-06 00:56 | -34.01070 | -59.82384 | 22209 ft | 402 kts | 127° |
| 2026-05-06 00:57 | -34.02623 | -59.79591 | 21746 ft | 399 kts | 127° |
| 2026-05-06 00:57 | -34.04142 | -59.76858 | 21274 ft | 396 kts | 127° |
| 2026-05-06 00:57 | -34.05669 | -59.74106 | 20789 ft | 393 kts | 127° |
| 2026-05-06 00:57 | -34.07186 | -59.71373 | 20308 ft | 390 kts | 127° |
| 2026-05-06 00:58 | -34.08689 | -59.68660 | 19825 ft | 388 kts | 127° |
| 2026-05-06 00:58 | -34.10184 | -59.65960 | 19348 ft | 385 kts | 126° |
| 2026-05-06 00:58 | -34.11665 | -59.63284 | 18867 ft | 382 kts | 126° |
| 2026-05-06 00:58 | -34.13136 | -59.60624 | 18383 ft | 379 kts | 127° |
| 2026-05-06 00:59 | -34.14596 | -59.57980 | 17901 ft | 377 kts | 126° |
| 2026-05-06 00:59 | -34.16035 | -59.55370 | 17421 ft | 369 kts | 126° |
| 2026-05-06 00:59 | -34.17456 | -59.52795 | 16942 ft | 367 kts | 126° |
| 2026-05-06 00:59 | -34.18865 | -59.50241 | 16471 ft | 364 kts | 126° |
| 2026-05-06 01:00 | -34.20264 | -59.47701 | 15998 ft | 362 kts | 126° |
| 2026-05-06 01:00 | -34.21647 | -59.45170 | 15525 ft | 360 kts | 123° |
| 2026-05-06 01:00 | -34.22597 | -59.42390 | 15020 ft | 361 kts | 102° |
| 2026-05-06 01:00 | -34.23007 | -59.39414 | 14598 ft | 357 kts | 100° |
| 2026-05-06 01:01 | -34.23424 | -59.36462 | 14111 ft | 356 kts | 100° |
| 2026-05-06 01:01 | -34.23850 | -59.33564 | 13644 ft | 353 kts | 101° |
| 2026-05-06 01:01 | -34.24286 | -59.30656 | 13172 ft | 351 kts | 101° |
| 2026-05-06 01:01 | -34.24725 | -59.27761 | 12702 ft | 349 kts | 101° |
| 2026-05-06 01:02 | -34.25161 | -59.24882 | 12231 ft | 347 kts | 100° |
| 2026-05-06 01:02 | -34.25594 | -59.22026 | 11764 ft | 344 kts | 100° |
| 2026-05-06 01:02 | -34.26021 | -59.19207 | 11288 ft | 337 kts | 100° |
| 2026-05-06 01:02 | -34.26440 | -59.16438 | 10836 ft | 334 kts | 100° |
| 2026-05-06 01:03 | -34.26854 | -59.13687 | 10383 ft | 332 kts | 99° |
| 2026-05-06 01:03 | -34.27262 | -59.10988 | 10227 ft | 320 kts | 99° |
| 2026-05-06 01:03 | -34.27656 | -59.08379 | 10071 ft | 310 kts | 99° |
| 2026-05-06 01:03 | -34.28036 | -59.05852 | 9848 ft | 302 kts | 99° |
| 2026-05-06 01:04 | -34.28410 | -59.03354 | 9480 ft | 301 kts | 99° |
| 2026-05-06 01:04 | -34.28656 | -59.01712 | 9253 ft | 299 kts | 99° |
| 2026-05-06 01:04 | -34.29026 | -58.99237 | 8899 ft | 298 kts | 99° |
| 2026-05-06 01:04 | -34.29393 | -58.96780 | 8544 ft | 296 kts | 99° |
| 2026-05-06 01:05 | -34.29757 | -58.94339 | 8184 ft | 295 kts | 99° |
| 2026-05-06 01:05 | -34.30238 | -58.91106 | 7708 ft | 294 kts | 99° |
| 2026-05-06 01:05 | -34.30483 | -58.89461 | 7459 ft | 292 kts | 99° |
| 2026-05-06 01:05 | -34.30841 | -58.87047 | 7098 ft | 291 kts | 99° |
| 2026-05-06 01:06 | -34.31199 | -58.84631 | 6739 ft | 290 kts | 99° |
| 2026-05-06 01:06 | -34.31551 | -58.82267 | 6385 ft | 289 kts | 99° |
| 2026-05-06 01:06 | -34.31905 | -58.79876 | 6016 ft | 288 kts | 99° |
| 2026-05-06 01:06 | -34.32261 | -58.77504 | 5736 ft | 283 kts | 103° |
| 2026-05-06 01:07 | -34.33076 | -58.75443 | 5656 ft | 265 kts | 130° |
| 2026-05-06 01:07 | -34.34305 | -58.73885 | 5553 ft | 249 kts | 135° |
| 2026-05-06 01:07 | -34.35485 | -58.72431 | 5436 ft | 235 kts | 135° |
| 2026-05-06 01:07 | -34.36593 | -58.71060 | 5312 ft | 222 kts | 135° |
| 2026-05-06 01:08 | -34.37654 | -58.69745 | 5102 ft | 214 kts | 135° |
| 2026-05-06 01:08 | -34.38678 | -58.68476 | 4841 ft | 208 kts | 134° |
| 2026-05-06 01:08 | -34.39684 | -58.67227 | 4510 ft | 206 kts | 134° |
| 2026-05-06 01:08 | -34.40681 | -58.65988 | 4182 ft | 204 kts | 134° |
| 2026-05-06 01:09 | -34.41662 | -58.64765 | 3861 ft | 201 kts | 133° |
| 2026-05-06 01:09 | -34.42633 | -58.63555 | 3554 ft | 198 kts | 133° |
| 2026-05-06 01:09 | -34.43577 | -58.62380 | 3284 ft | 192 kts | 133° |
| 2026-05-06 01:09 | -34.44493 | -58.61240 | 3111 ft | 185 kts | 133° |
| 2026-05-06 01:10 | -34.45391 | -58.60120 | 2988 ft | 185 kts | 132° |
| 2026-05-06 01:10 | -34.46248 | -58.58956 | 2939 ft | 186 kts | 123° |
| 2026-05-06 01:10 | -34.46949 | -58.57636 | 2947 ft | 187 kts | 122° |
| 2026-05-06 01:10 | -34.47716 | -58.56310 | 2681 ft | 197 kts | 124° |
| 2026-05-06 01:11 | -34.48482 | -58.54978 | 2425 ft | 190 kts | 123° |
| 2026-05-06 01:11 | -34.49185 | -58.53714 | 2198 ft | 176 kts | 122° |
| 2026-05-06 01:11 | -34.49843 | -58.52533 | 1964 ft | 161 kts | 123° |
| 2026-05-06 01:11 | -34.50431 | -58.51474 | 1743 ft | 146 kts | 123° |
| 2026-05-06 01:12 | -34.50985 | -58.50470 | 1580 ft | 144 kts | 124° |
| 2026-05-06 01:12 | -34.51541 | -58.49466 | 1400 ft | 143 kts | 124° |
| 2026-05-06 01:12 | -34.52096 | -58.48466 | 1200 ft | 143 kts | 125° |
| 2026-05-06 01:12 | -34.52651 | -58.47466 | 1011 ft | 144 kts | 125° |
| 2026-05-06 01:13 | -34.53214 | -58.46455 | 823 ft | 144 kts | 125° |
| 2026-05-06 01:13 | -34.53774 | -58.45451 | 631 ft | 143 kts | 126° |
| 2026-05-06 01:13 | -34.54328 | -58.44441 | 426 ft | 144 kts | 123° |
| 2026-05-06 01:13 | -34.54881 | -58.43445 | 241 ft | 144 kts | 125° |
| 2026-05-06 01:14 | -34.55911 | -58.41598 | 24 ft | 89 kts | 124° |
| 2026-05-06 01:14 | -34.56149 | -58.41172 | 27 ft | 43 kts | 124° |
| 2026-05-06 01:14 | -34.56227 | -58.41025 | 26 ft | 8 kts | 113° |
| 2026-05-06 01:15 | -34.56235 | -58.40962 | 29 ft | 7 kts | 92° |
| 2026-05-06 01:15 | -34.56238 | -58.40900 | 30 ft | 7 kts | 92° |
| 2026-05-06 01:15 | -34.56239 | -58.40872 | 26 ft | 0 kts | 93° |
| 2026-05-06 01:16 | -34.56239 | -58.40863 | 26 ft | 3 kts | 93° |
| 2026-05-06 01:16 | -34.56240 | -58.40823 | 26 ft | 4 kts | 91° |
| 2026-05-06 01:16 | -34.56227 | -58.40794 | 26 ft | 3 kts | 12° |
| 2026-05-06 01:17 | -34.56211 | -58.40810 | 26 ft | 3 kts | 316° |
| 2026-05-06 01:17 | -34.56192 | -58.40831 | 30 ft | 4 kts | 317° |
| 2026-05-06 01:17 | -34.56170 | -58.40862 | 26 ft | 6 kts | 300° |
| 2026-05-06 01:17 | -34.56154 | -58.40915 | 30 ft | 8 kts | 294° |
| 2026-05-06 01:18 | -34.56124 | -58.40972 | 26 ft | 9 kts | 308° |
| 2026-05-06 01:18 | -34.56084 | -58.41035 | 26 ft | 10 kts | 307° |
| 2026-05-06 01:18 | -34.56039 | -58.41107 | 27 ft | 11 kts | 307° |
| 2026-05-06 01:18 | -34.55989 | -58.41190 | 29 ft | 13 kts | 307° |
| 2026-05-06 01:19 | -34.55937 | -58.41276 | 28 ft | 9 kts | 306° |
| 2026-05-06 01:19 | -34.55893 | -58.41297 | 26 ft | 8 kts | 31° |
| 2026-05-06 01:19 | -34.55846 | -58.41275 | 30 ft | 7 kts | 354° |
| 2026-05-06 01:19 | -34.55814 | -58.41319 | 26 ft | 7 kts | 302° |
| 2026-05-06 01:20 | -34.55791 | -58.41363 | 28 ft | 5 kts | 302° |
| 2026-05-06 01:20 | -34.55802 | -58.41392 | 26 ft | 5 kts | 207° |
| 2026-05-06 01:20 | -34.55824 | -58.41405 | 26 ft | 0 kts | 208° |